Time;durP1;ratioP1;P1;durP2;ratioP2;P2;SDS_P1;SDS_P2;PMS_P1;PMS_P2;Temp;Humidity;BMP_temperature;BMP_pressure;BME280_temperature;BME280_humidity;BME280_pressure;Samples;Min_cycle;Max_cycle;Signal;HPM_P1;HPM_P2
2022/08/30 00:01:59;;;;;;;4.68;4.28;;;23.00;58.30;;;;;;5013767;28;20300;-73
2022/08/30 00:04:26;;;;;;;4.65;4.25;;;23.00;58.30;;;;;;4997485;28;20262;-73
2022/08/30 00:06:53;;;;;;;4.20;3.80;;;23.00;58.30;;;;;;4997353;28;20193;-73
2022/08/30 00:09:20;;;;;;;5.03;4.05;;;23.00;58.40;;;;;;4997558;28;20271;-73
2022/08/30 00:11:48;;;;;;;4.97;4.10;;;23.00;58.40;;;;;;4997823;28;20220;-73
2022/08/30 00:14:15;;;;;;;4.25;3.90;;;23.00;58.50;;;;;;5015060;28;20189;-73
2022/08/30 00:16:44;;;;;;;4.38;3.97;;;23.00;58.40;;;;;;4996775;28;20699;-73
2022/08/30 00:19:13;;;;;;;4.40;4.00;;;23.00;58.40;;;;;;5014166;28;20196;-73
2022/08/30 00:21:40;;;;;;;4.47;4.07;;;22.90;58.40;;;;;;5013482;28;20709;-73
2022/08/30 00:24:06;;;;;;;4.57;3.97;;;22.90;58.30;;;;;;4997428;28;20204;-73
2022/08/30 00:26:33;;;;;;;4.30;3.90;;;23.00;58.40;;;;;;4998488;28;20197;-73
2022/08/30 00:29:01;;;;;;;4.80;3.92;;;22.90;58.20;;;;;;5013749;28;20291;-73
2022/08/30 00:31:27;;;;;;;4.38;3.97;;;22.90;58.40;;;;;;4996841;28;20259;-73
2022/08/30 00:33:54;;;;;;;4.97;4.20;;;22.90;58.30;;;;;;4996915;28;20204;-73
2022/08/30 00:36:23;;;;;;;4.38;3.97;;;22.90;58.30;;;;;;4996966;28;20311;-73
2022/08/30 00:38:49;;;;;;;4.20;3.85;;;22.90;58.30;;;;;;4996647;28;20575;-73
2022/08/30 00:41:16;;;;;;;4.53;4.13;;;22.90;58.40;;;;;;5013248;28;20228;-73
2022/08/30 00:43:43;;;;;;;4.43;3.95;;;22.90;58.50;;;;;;5014681;28;20202;-73
2022/08/30 00:46:10;;;;;;;4.35;3.97;;;22.90;58.50;;;;;;4997046;28;20648;-73
2022/08/30 00:48:39;;;;;;;4.22;3.83;;;22.80;58.50;;;;;;5014500;28;20192;-73
2022/08/30 00:51:07;;;;;;;4.57;4.15;;;22.80;58.50;;;;;;4998818;28;20235;-73
2022/08/30 00:53:37;;;;;;;4.47;4.07;;;22.80;58.50;;;;;;5013141;28;20200;-73
2022/08/30 00:56:04;;;;;;;4.38;3.97;;;22.80;58.50;;;;;;5016296;28;20201;-73
2022/08/30 00:58:33;;;;;;;4.68;4.20;;;22.80;58.50;;;;;;4998840;28;20201;-73
2022/08/30 01:01:01;;;;;;;5.07;4.18;;;22.80;58.40;;;;;;4996341;28;20717;-73
2022/08/30 01:03:28;;;;;;;4.45;3.90;;;22.70;58.40;;;;;;4996250;28;20275;-73
2022/08/30 01:05:55;;;;;;;4.63;4.10;;;22.80;58.50;;;;;;5014145;28;20196;-73
2022/08/30 01:08:22;;;;;;;4.30;3.90;;;22.70;58.50;;;;;;5012698;28;20631;-73
2022/08/30 01:10:50;;;;;;;4.50;3.97;;;22.70;58.40;;;;;;5012617;28;20212;-73
2022/08/30 01:13:17;;;;;;;4.47;4.07;;;22.70;58.30;;;;;;4996245;28;20197;-73
2022/08/30 01:15:44;;;;;;;4.32;3.90;;;22.70;58.40;;;;;;4996245;28;20208;-73
2022/08/30 01:18:12;;;;;;;4.30;3.90;;;22.70;58.50;;;;;;4996257;28;20233;-73
2022/08/30 01:20:43;;;;;;;4.72;4.32;;;22.70;58.30;;;;;;4996127;28;20216;-73
2022/08/30 01:23:12;;;;;;;4.45;4.05;;;22.70;58.20;;;;;;5012859;28;20208;-73
2022/08/30 01:25:41;;;;;;;4.22;3.90;;;22.70;58.40;;;;;;5012687;28;20201;-73
2022/08/30 01:28:10;;;;;;;4.28;3.88;;;22.70;58.50;;;;;;5015386;28;20200;-73
2022/08/30 01:30:38;;;;;;;4.45;4.05;;;22.70;58.60;;;;;;5016522;28;20232;-74
2022/08/30 01:33:06;;;;;;;4.57;4.18;;;22.70;58.50;;;;;;5000190;28;20276;-73
2022/08/30 01:35:35;;;;;;;4.53;4.10;;;22.70;58.50;;;;;;5016201;28;20264;-73
2022/08/30 01:38:02;;;;;;;4.57;4.18;;;22.70;58.50;;;;;;4999750;28;20212;-73
2022/08/30 01:40:30;;;;;;;4.80;4.40;;;22.60;58.40;;;;;;5016423;28;20259;-73
2022/08/30 01:42:58;;;;;;;4.55;4.18;;;22.60;58.30;;;;;;4999635;28;20205;-73
2022/08/30 01:45:25;;;;;;;4.88;4.45;;;22.60;58.40;;;;;;4999687;28;20205;-73
2022/08/30 01:47:51;;;;;;;5.18;4.30;;;22.60;58.40;;;;;;5017884;28;20248;-73
2022/08/30 01:50:18;;;;;;;4.78;4.35;;;22.60;58.50;;;;;;4999855;28;20200;-73
2022/08/30 01:52:45;;;;;;;4.70;4.30;;;22.60;59.10;;;;;;4999846;28;20201;-73
2022/08/30 01:55:12;;;;;;;4.78;4.30;;;22.60;58.40;;;;;;5015796;28;20197;-73
2022/08/30 01:57:41;;;;;;;4.65;4.25;;;22.60;58.40;;;;;;4999419;28;20221;-73
2022/08/30 02:00:09;;;;;;;4.88;4.22;;;22.60;58.30;;;;;;4999421;28;20220;-73
2022/08/30 02:02:38;;;;;;;5.35;4.25;;;22.60;58.40;;;;;;5017045;28;20185;-73
2022/08/30 02:05:06;;;;;;;4.93;4.53;;;22.60;59.10;;;;;;4999413;28;20208;-73
2022/08/30 02:07:33;;;;;;;4.88;4.20;;;22.50;58.40;;;;;;5015680;28;20292;-73
2022/08/30 02:10:00;;;;;;;4.68;4.20;;;22.50;58.30;;;;;;4999157;28;20255;-73
2022/08/30 02:12:29;;;;;;;4.57;4.18;;;22.50;58.40;;;;;;4999320;28;20400;-73
2022/08/30 02:14:57;;;;;;;4.45;4.05;;;22.50;58.30;;;;;;4999214;28;20722;-73
2022/08/30 02:17:24;;;;;;;4.85;4.45;;;22.50;58.30;;;;;;4999016;28;20220;-73
2022/08/30 02:19:51;;;;;;;5.05;4.55;;;22.50;58.20;;;;;;4998985;28;20189;-73
2022/08/30 02:22:19;;;;;;;4.65;4.25;;;22.50;58.20;;;;;;4999080;28;20259;-73
2022/08/30 02:24:47;;;;;;;4.72;4.32;;;22.50;58.20;;;;;;5015339;28;20298;-73
2022/08/30 02:27:14;;;;;;;4.65;4.13;;;22.50;58.10;;;;;;5015380;28;20197;-73
2022/08/30 02:29:40;;;;;;;5.00;4.50;;;22.50;58.30;;;;;;5016390;28;20220;-73
2022/08/30 02:32:09;;;;;;;4.70;4.30;;;22.50;58.20;;;;;;4998766;28;20229;-73
2022/08/30 02:34:36;;;;;;;4.85;4.32;;;22.50;58.20;;;;;;4998846;28;20203;-73
2022/08/30 02:37:03;;;;;;;4.47;4.07;;;22.40;58.20;;;;;;5015889;28;20679;-73
2022/08/30 02:39:31;;;;;;;5.18;4.15;;;22.50;58.20;;;;;;4998931;28;20219;-73
2022/08/30 02:41:58;;;;;;;5.07;4.57;;;22.40;58.20;;;;;;4998617;28;20223;-73
2022/08/30 02:44:25;;;;;;;4.68;4.28;;;22.40;58.20;;;;;;4998658;28;20224;-73
2022/08/30 02:46:51;;;;;;;4.60;4.20;;;22.40;58.20;;;;;;4998626;28;20671;-73
2022/08/30 02:49:20;;;;;;;4.93;4.43;;;22.40;58.10;;;;;;5014876;28;20614;-73
2022/08/30 02:51:47;;;;;;;6.13;4.35;;;22.40;58.20;;;;;;4998550;28;20240;-73
2022/08/30 02:54:18;;;;;;;5.68;4.50;;;22.40;58.40;;;;;;4998475;28;20667;-73
2022/08/30 02:56:45;;;;;;;4.78;4.38;;;22.40;58.40;;;;;;5014626;28;20284;-73
2022/08/30 02:59:12;;;;;;;4.80;4.30;;;22.40;58.70;;;;;;4998207;28;20200;-73
2022/08/30 03:01:39;;;;;;;4.88;4.35;;;22.40;58.20;;;;;;4998387;28;20225;-73
2022/08/30 03:04:06;;;;;;;4.82;4.35;;;22.40;58.20;;;;;;4998629;28;20246;-73
2022/08/30 03:06:35;;;;;;;4.43;4.05;;;22.40;58.00;;;;;;4999156;28;20228;-73
2022/08/30 03:09:02;;;;;;;5.10;4.10;;;22.40;57.90;;;;;;5015620;28;20191;-73
2022/08/30 03:11:29;;;;;;;4.90;4.50;;;22.30;57.80;;;;;;4998166;28;20599;-73
2022/08/30 03:13:56;;;;;;;4.78;4.38;;;22.30;57.90;;;;;;4998500;28;20216;-73
2022/08/30 03:16:23;;;;;;;4.70;4.13;;;22.30;57.80;;;;;;4998113;28;20675;-73
2022/08/30 03:18:50;;;;;;;6.13;4.53;;;22.30;57.70;;;;;;5015483;28;20215;-73
2022/08/30 03:21:17;;;;;;;5.07;4.35;;;22.30;57.60;;;;;;5015564;28;20284;-73
2022/08/30 03:23:45;;;;;;;4.75;4.35;;;22.30;57.70;;;;;;4997744;28;20201;-73
2022/08/30 03:26:13;;;;;;;4.97;4.47;;;22.30;57.50;;;;;;4998068;28;20197;-73
2022/08/30 03:28:41;;;;;;;4.65;4.25;;;22.40;57.50;;;;;;5014113;28;20207;-73
2022/08/30 03:31:08;;;;;;;4.97;4.47;;;22.40;57.40;;;;;;5015146;28;20216;-73
2022/08/30 03:33:35;;;;;;;5.00;4.60;;;22.40;57.30;;;;;;4997691;28;20255;-73
2022/08/30 03:36:02;;;;;;;5.03;4.53;;;22.50;57.20;;;;;;5014321;28;20208;-73
2022/08/30 03:38:29;;;;;;;4.95;4.55;;;22.50;57.10;;;;;;4997977;28;20220;-73
2022/08/30 03:40:58;;;;;;;4.68;4.28;;;22.50;57.00;;;;;;4997487;28;20216;-73
2022/08/30 03:43:25;;;;;;;4.40;4.00;;;22.50;56.90;;;;;;4997820;28;20663;-73
2022/08/30 03:45:52;;;;;;;4.75;4.25;;;22.50;57.00;;;;;;4997557;28;20237;-73
2022/08/30 03:48:18;;;;;;;5.15;4.65;;;22.60;56.70;;;;;;5014985;28;20197;-73
2022/08/30 03:50:45;;;;;;;4.70;4.30;;;22.60;56.90;;;;;;5013257;28;20311;-73
2022/08/30 03:53:12;;;;;;;4.40;4.00;;;22.60;56.90;;;;;;4997104;28;20258;-73
2022/08/30 03:55:40;;;;;;;5.32;4.30;;;22.60;56.70;;;;;;4997667;28;20263;-73
2022/08/30 03:58:08;;;;;;;5.30;4.65;;;22.60;56.60;;;;;;5014718;28;20216;-73
2022/08/30 04:00:35;;;;;;;5.65;4.40;;;22.60;56.60;;;;;;4997725;28;20240;-73
2022/08/30 04:03:02;;;;;;;4.75;4.35;;;22.60;56.70;;;;;;5013714;28;20295;-73
2022/08/30 04:05:29;;;;;;;4.68;4.25;;;22.60;56.60;;;;;;4997145;28;20208;-73
2022/08/30 04:07:56;;;;;;;5.25;4.60;;;22.60;56.60;;;;;;5014459;28;20215;-73
2022/08/30 04:10:23;;;;;;;4.90;4.45;;;22.60;56.60;;;;;;5013471;28;20200;-73
2022/08/30 04:12:50;;;;;;;4.70;4.30;;;22.50;56.50;;;;;;4997305;28;20200;-73
2022/08/30 04:15:19;;;;;;;5.63;4.75;;;22.50;56.50;;;;;;4996896;28;20717;-73
2022/08/30 04:17:46;;;;;;;4.53;4.13;;;22.50;56.50;;;;;;4997163;28;20240;-73
2022/08/30 04:20:13;;;;;;;4.70;4.28;;;22.50;56.60;;;;;;4996517;28;20204;-73
2022/08/30 04:22:40;;;;;;;5.13;4.40;;;22.50;56.50;;;;;;4997141;28;20201;-73
2022/08/30 04:25:08;;;;;;;4.60;4.20;;;22.50;56.70;;;;;;5013290;28;20228;-73
2022/08/30 04:27:36;;;;;;;4.82;4.40;;;22.40;56.60;;;;;;5014757;28;20550;-73
2022/08/30 04:30:05;;;;;;;4.65;4.25;;;22.50;56.70;;;;;;4997187;28;20638;-73
2022/08/30 04:32:34;;;;;;;5.25;4.70;;;22.40;56.70;;;;;;4996978;28;20203;-73
2022/08/30 04:35:01;;;;;;;5.32;4.43;;;22.40;56.70;;;;;;4996923;28;20205;-73
2022/08/30 04:37:28;;;;;;;5.07;4.18;;;22.40;56.80;;;;;;4996673;28;20220;-73
2022/08/30 04:39:56;;;;;;;4.50;4.10;;;22.40;56.90;;;;;;4996939;28;20204;-73
2022/08/30 04:42:23;;;;;;;4.88;4.38;;;22.40;56.80;;;;;;4996639;28;20228;-73
2022/08/30 04:44:50;;;;;;;5.13;4.60;;;22.40;57.00;;;;;;4996203;28;20208;-73
2022/08/30 04:47:17;;;;;;;5.07;4.57;;;22.40;57.00;;;;;;5013000;28;20722;-73
2022/08/30 04:49:46;;;;;;;6.25;4.10;;;22.40;57.00;;;;;;5013350;28;20197;-73
2022/08/30 04:52:13;;;;;;;4.80;4.32;;;22.30;56.80;;;;;;5014105;28;20268;-73
2022/08/30 04:54:40;;;;;;;4.97;4.57;;;22.40;57.00;;;;;;4996675;28;20255;-73
2022/08/30 04:57:07;;;;;;;4.70;4.30;;;22.30;56.90;;;;;;4996446;28;20196;-73
2022/08/30 04:59:34;;;;;;;5.18;4.30;;;22.30;57.00;;;;;;4996356;28;20220;-73
2022/08/30 05:02:01;;;;;;;5.25;4.75;;;22.30;57.10;;;;;;4998245;28;20222;-73
2022/08/30 05:04:28;;;;;;;5.22;4.72;;;22.30;57.00;;;;;;5017905;28;20200;-73
2022/08/30 05:06:56;;;;;;;4.97;4.47;;;22.30;57.00;;;;;;5013518;28;20197;-73
2022/08/30 05:09:23;;;;;;;5.55;4.57;;;22.30;57.10;;;;;;4990449;28;20196;-73
2022/08/30 05:11:50;;;;;;;4.68;4.28;;;22.30;57.10;;;;;;5019815;28;20310;-73
2022/08/30 05:14:17;;;;;;;5.07;4.57;;;22.30;57.10;;;;;;5019924;28;20195;-73
2022/08/30 05:16:45;;;;;;;4.90;4.43;;;22.30;57.10;;;;;;5037572;28;20200;-73
2022/08/30 05:19:12;;;;;;;4.80;4.40;;;22.30;57.00;;;;;;5019925;28;20718;-73
2022/08/30 05:21:40;;;;;;;6.25;4.93;;;22.30;57.00;;;;;;5019681;28;20224;-73
2022/08/30 05:24:09;;;;;;;5.35;4.85;;;22.40;57.10;;;;;;5020018;28;20196;-73
2022/08/30 05:26:37;;;;;;;4.80;4.40;;;22.40;57.20;;;;;;5019866;28;20200;-73
2022/08/30 05:29:04;;;;;;;6.93;4.95;;;22.40;57.10;;;;;;5019713;28;20250;-73
2022/08/30 05:31:33;;;;;;;5.30;4.80;;;22.40;57.00;;;;;;5019544;28;20220;-73
2022/08/30 05:33:59;;;;;;;6.38;5.07;;;22.40;57.00;;;;;;5019557;28;20200;-73
2022/08/30 05:36:27;;;;;;;5.10;4.60;;;22.50;56.90;;;;;;5019996;28;20219;-73
2022/08/30 05:38:54;;;;;;;7.40;5.10;;;22.50;56.80;;;;;;5019305;28;20247;-73
2022/08/30 05:41:24;;;;;;;5.75;5.18;;;22.60;56.60;;;;;;5019376;28;20307;-73
2022/08/30 05:43:52;;;;;;;6.07;5.25;;;22.70;56.70;;;;;;5019235;28;20658;-73
2022/08/30 05:46:20;;;;;;;5.65;4.97;;;22.80;56.50;;;;;;5019223;28;20196;-73
2022/08/30 05:48:48;;;;;;;5.07;4.57;;;23.00;56.20;;;;;;5020350;28;20196;-73
2022/08/30 05:51:17;;;;;;;6.38;4.68;;;23.20;55.90;;;;;;5019352;28;20311;-73
2022/08/30 05:53:44;;;;;;;5.72;5.10;;;23.40;55.50;;;;;;5019092;28;20192;-73
2022/08/30 05:56:12;;;;;;;5.78;4.72;;;23.60;55.10;;;;;;5019037;28;20568;-73
2022/08/30 05:58:40;;;;;;;6.05;5.22;;;23.70;54.90;;;;;;5019187;28;20682;-73
2022/08/30 06:01:07;;;;;;;5.00;4.50;;;23.80;54.60;;;;;;5019016;28;20694;-73
2022/08/30 06:03:34;;;;;;;5.50;5.00;;;24.00;54.40;;;;;;5018983;28;20211;-73
2022/08/30 06:06:01;;;;;;;5.72;5.22;;;24.10;54.80;;;;;;5018805;28;20203;-73
2022/08/30 06:08:28;;;;;;;5.57;5.10;;;24.20;53.90;;;;;;5018895;28;20223;-73
2022/08/30 06:10:55;;;;;;;5.53;5.03;;;24.30;53.90;;;;;;5018836;28;20694;-73
2022/08/30 06:13:22;;;;;;;6.18;4.60;;;24.50;53.80;;;;;;5018412;28;20598;-73
2022/08/30 06:15:51;;;;;;;5.03;4.63;;;24.60;53.30;;;;;;5018993;28;20228;-73
2022/08/30 06:18:18;;;;;;;5.60;5.03;;;24.70;53.30;;;;;;5036637;28;20208;-74
2022/08/30 06:20:47;;;;;;;5.03;4.53;;;24.80;52.80;;;;;;5018711;28;20581;-73
2022/08/30 06:23:16;;;;;;;4.85;4.38;;;25.00;52.80;;;;;;5018527;28;20666;-72
2022/08/30 06:25:43;;;;;;;5.85;5.03;;;25.10;53.20;;;;;;5018505;28;20207;-73
2022/08/30 06:28:10;;;;;;;5.10;4.60;;;25.10;52.30;;;;;;5018606;28;20227;-72
2022/08/30 06:30:39;;;;;;;5.22;4.70;;;25.30;52.10;;;;;;5018470;28;20220;-73
2022/08/30 06:33:08;;;;;;;5.35;4.80;;;25.40;52.00;;;;;;5002557;28;20231;-72
2022/08/30 06:35:35;;;;;;;5.40;4.68;;;25.50;51.70;;;;;;5018918;28;20254;-73
2022/08/30 06:38:02;;;;;;;5.22;4.72;;;25.60;51.60;;;;;;5018284;28;20227;-73
2022/08/30 06:40:29;;;;;;;5.28;4.78;;;25.70;51.30;;;;;;5018851;28;20249;-72
2022/08/30 06:42:56;;;;;;;4.93;4.47;;;25.80;51.10;;;;;;5015071;28;20200;-72
2022/08/30 06:45:23;;;;;;;5.03;4.60;;;25.90;50.90;;;;;;5003395;28;20204;-72
2022/08/30 06:47:51;;;;;;;6.60;4.80;;;25.90;50.60;;;;;;5001260;28;20216;-73
2022/08/30 06:50:20;;;;;;;5.65;5.07;;;26.10;50.40;;;;;;5002073;28;20200;-73
2022/08/30 06:52:46;;;;;;;5.18;4.68;;;26.10;50.40;;;;;;5014149;28;20212;-72
2022/08/30 06:55:15;;;;;;;5.00;4.55;;;26.20;50.20;;;;;;4998016;28;20207;-73
2022/08/30 06:57:42;;;;;;;5.50;5.00;;;26.20;50.00;;;;;;4998585;28;20295;-73
2022/08/30 07:00:10;;;;;;;4.90;4.50;;;26.30;50.00;;;;;;4997341;28;20220;-73
2022/08/30 07:02:38;;;;;;;5.75;4.57;;;26.40;49.90;;;;;;5016077;28;20200;-74
2022/08/30 07:05:06;;;;;;;6.35;5.40;;;26.50;49.70;;;;;;5020546;28;20212;-74
2022/08/30 07:07:35;;;;;;;6.70;5.30;;;26.60;49.50;;;;;;4991183;28;20215;-73
2022/08/30 07:10:02;;;;;;;5.68;5.15;;;26.60;49.20;;;;;;5019569;28;20203;-73
2022/08/30 07:12:29;;;;;;;5.30;4.80;;;26.70;49.10;;;;;;5017915;28;20781;-73
2022/08/30 07:14:56;;;;;;;12.25;6.75;;;26.70;48.80;;;;;;4990894;28;20208;-74
2022/08/30 07:20:09;;;;;;;11.52;5.80;;;26.60;49.00;;;;;;4999427;28;20223;-74
2022/08/30 07:22:37;;;;;;;6.68;5.43;;;26.70;49.40;;;;;;5000549;28;20247;-74
2022/08/30 07:25:04;;;;;;;7.50;5.50;;;26.60;48.80;;;;;;4996503;28;20207;-74
2022/08/30 07:27:31;;;;;;;6.60;5.50;;;26.60;48.60;;;;;;4997955;28;20215;-74
2022/08/30 07:29:59;;;;;;;6.20;5.38;;;26.60;48.50;;;;;;5014605;28;20331;-74
2022/08/30 07:32:26;;;;;;;7.13;5.20;;;26.80;48.70;;;;;;4997714;28;20239;-74
2022/08/30 07:34:54;;;;;;;8.10;5.15;;;26.80;48.90;;;;;;4998556;28;20188;-74
2022/08/30 07:37:21;;;;;;;6.18;4.80;;;26.90;49.20;;;;;;4997968;28;20789;-74
2022/08/30 07:39:49;;;;;;;7.03;5.57;;;27.00;49.00;;;;;;5014830;28;20258;-74
2022/08/30 07:42:16;;;;;;;8.45;5.03;;;27.00;48.60;;;;;;4998035;28;20223;-74
2022/08/30 07:44:43;;;;;;;6.05;5.05;;;27.00;48.10;;;;;;4998176;28;20196;-74
2022/08/30 07:47:10;;;;;;;6.75;5.22;;;27.00;48.40;;;;;;5014500;28;20200;-74
2022/08/30 07:49:37;;;;;;;6.10;5.25;;;27.00;48.40;;;;;;4997703;28;20291;-72
2022/08/30 07:52:04;;;;;;;7.07;6.15;;;26.90;48.70;;;;;;5014062;28;20586;-72
2022/08/30 07:54:31;;;;;;;6.55;5.82;;;26.90;48.50;;;;;;4998095;28;20697;-72
2022/08/30 07:56:59;;;;;;;7.18;6.30;;;26.70;48.90;;;;;;4998387;28;20202;-72
2022/08/30 07:59:27;;;;;;;7.38;6.20;;;26.60;49.70;;;;;;4998213;28;20220;-72
2022/08/30 08:01:56;;;;;;;9.55;5.78;;;26.60;50.10;;;;;;4998462;28;20710;-72
2022/08/30 08:04:23;;;;;;;7.20;5.88;;;26.50;50.70;;;;;;5014069;28;20651;-73
2022/08/30 08:06:49;;;;;;;9.68;5.85;;;26.60;49.70;;;;;;4998200;28;20200;-73
2022/08/30 08:09:17;;;;;;;7.18;5.85;;;26.60;49.70;;;;;;5015828;28;20192;-73
2022/08/30 08:11:44;;;;;;;6.40;5.65;;;26.80;49.00;;;;;;5014362;28;20231;-73
2022/08/30 08:14:12;;;;;;;8.70;6.20;;;26.80;49.50;;;;;;5014176;28;20200;-73
2022/08/30 08:16:58;;;;;;;9.93;6.85;;;27.00;49.10;;;;;;5015080;28;20558;-73
2022/08/30 08:19:25;;;;;;;7.93;6.50;;;27.10;48.90;;;;;;4997260;28;20655;-73
2022/08/30 08:21:55;;;;;;;7.75;6.25;;;27.20;48.60;;;;;;4997675;28;20227;-73
2022/08/30 08:24:22;;;;;;;6.95;5.90;;;27.30;48.40;;;;;;4998114;28;20206;-73
2022/08/30 08:26:49;;;;;;;6.25;5.60;;;27.30;48.60;;;;;;4997509;28;20258;-73
2022/08/30 08:29:18;;;;;;;7.45;5.97;;;27.40;48.20;;;;;;4997788;28;20228;-73
2022/08/30 08:31:45;;;;;;;6.63;5.93;;;27.60;47.90;;;;;;4997001;28;20227;-73
2022/08/30 08:34:12;;;;;;;7.40;5.90;;;27.60;47.90;;;;;;5013203;28;20208;-73
2022/08/30 08:36:40;;;;;;;10.73;7.00;;;27.70;48.70;;;;;;4996615;28;20227;-73
2022/08/30 08:39:08;;;;;;;9.88;7.47;;;27.80;48.00;;;;;;4997260;28;20238;-73
2022/08/30 08:41:40;;;;;;;8.35;7.38;;;27.80;47.40;;;;;;5013416;28;20227;-73
2022/08/30 08:44:12;;;;;;;8.60;6.80;;;27.90;47.00;;;;;;5013218;28;20223;-73
2022/08/30 08:46:44;;;;;;;9.43;7.13;;;28.00;46.80;;;;;;4997503;28;20640;-73
2022/08/30 08:49:11;;;;;;;7.70;6.90;;;28.10;46.70;;;;;;5016613;28;20184;-73
2022/08/30 08:54:26;;;;;;;9.35;6.50;;;28.20;46.80;;;;;;4999266;28;20279;-72
2022/08/30 08:56:53;;;;;;;8.50;6.38;;;28.20;46.30;;;;;;5015536;28;20279;-72
2022/08/30 08:59:20;;;;;;;10.00;6.47;;;28.30;46.40;;;;;;5015167;28;20216;-72
2022/08/30 09:01:49;;;;;;;8.05;6.53;;;28.30;47.40;;;;;;5020036;28;20219;-72
2022/08/30 09:04:19;;;;;;;9.27;6.63;;;28.30;46.60;;;;;;5019088;28;20262;-72
2022/08/30 09:06:50;;;;;;;8.32;6.03;;;28.40;46.70;;;;;;5007981;28;20211;-73
2022/08/30 09:09:19;;;;;;;7.05;5.80;;;28.40;46.90;;;;;;5023005;28;20302;-73
2022/08/30 09:11:47;;;;;;;8.32;5.82;;;28.50;46.70;;;;;;5012703;28;20234;-73
2022/08/30 09:14:16;;;;;;;9.95;6.20;;;28.50;46.60;;;;;;5026156;28;20208;-73
2022/08/30 09:17:04;;;;;;;6.10;5.50;;;28.60;46.60;;;;;;4996596;28;20204;-73
2022/08/30 09:19:42;;;;;;;7.95;5.60;;;28.60;47.10;;;;;;4994745;28;20436;-73
2022/08/30 09:22:22;;;;;;;8.05;6.10;;;28.60;46.30;;;;;;4995994;28;20572;-73
2022/08/30 09:24:50;;;;;;;7.35;5.32;;;28.70;46.10;;;;;;4964933;28;20291;-73
2022/08/30 09:27:20;;;;;;;8.38;5.47;;;28.70;46.00;;;;;;4996847;28;20624;-73
2022/08/30 09:29:55;;;;;;;7.00;5.57;;;28.70;46.00;;;;;;4996092;28;20208;-73
2022/08/30 09:32:32;;;;;;;8.18;5.55;;;28.80;45.80;;;;;;4996744;28;20314;-73
2022/08/30 09:34:59;;;;;;;6.28;5.45;;;28.80;45.90;;;;;;4996507;28;20221;-73
2022/08/30 09:37:33;;;;;;;6.82;5.32;;;28.80;45.80;;;;;;4996191;28;20200;-73
2022/08/30 09:40:00;;;;;;;8.10;5.38;;;28.80;45.60;;;;;;4996069;28;20215;-73
2022/08/30 09:42:29;;;;;;;6.93;5.38;;;28.80;45.60;;;;;;4996019;28;20254;-73
2022/08/30 09:45:09;;;;;;;6.07;5.55;;;28.80;46.20;;;;;;4996066;28;20200;-73
2022/08/30 09:47:38;;;;;;;5.75;5.13;;;28.80;45.60;;;;;;4997196;28;20246;-73
2022/08/30 09:50:07;;;;;;;6.95;5.18;;;28.80;45.60;;;;;;4999397;28;20203;-73
2022/08/30 09:52:38;;;;;;;6.53;5.10;;;28.80;45.60;;;;;;5017444;28;20195;-73
2022/08/30 09:55:16;;;;;;;5.40;4.90;;;28.80;45.60;;;;;;5000224;28;20635;-73
2022/08/30 09:57:51;;;;;;;7.13;5.22;;;28.70;45.70;;;;;;5000434;28;20199;-73
2022/08/30 10:00:20;;;;;;;6.93;5.22;;;28.80;45.70;;;;;;4999543;28;20601;-73
2022/08/30 10:03:15;;;;;;;6.03;5.40;;;28.70;45.80;;;;;;5000877;28;20191;-73
2022/08/30 10:05:48;;;;;;;5.68;5.15;;;28.60;45.90;;;;;;4998485;28;20701;-73
2022/08/30 10:08:18;;;;;;;6.45;5.60;;;28.60;46.00;;;;;;4999257;28;20200;-73
2022/08/30 10:10:49;;;;;;;7.32;4.97;;;28.50;46.10;;;;;;5017190;28;20208;-73
2022/08/30 10:13:36;;;;;;;5.22;4.72;;;28.50;46.10;;;;;;4999284;28;20262;-73
2022/08/30 10:16:08;;;;;;;6.03;5.00;;;28.50;46.20;;;;;;4999259;28;20291;-73
2022/08/30 10:18:41;;;;;;;6.97;4.55;;;28.50;46.30;;;;;;4983137;28;20322;-73
2022/08/30 10:21:11;;;;;;;5.45;4.90;;;28.40;46.30;;;;;;5017167;28;20286;-73
2022/08/30 10:23:41;;;;;;;5.70;5.10;;;28.40;46.30;;;;;;4999399;28;20250;-73
2022/08/30 10:26:11;;;;;;;5.47;4.90;;;28.40;46.40;;;;;;4982955;28;20206;-73
2022/08/30 10:28:41;;;;;;;5.60;5.03;;;28.40;46.30;;;;;;4998963;28;20192;-73
2022/08/30 10:31:11;;;;;;;5.15;4.75;;;28.40;46.40;;;;;;4998932;28;20318;-73
2022/08/30 10:33:41;;;;;;;5.30;4.60;;;28.40;46.50;;;;;;5016753;28;20554;-73
2022/08/30 10:36:10;;;;;;;5.43;4.93;;;28.40;46.40;;;;;;4999119;28;20677;-72
2022/08/30 10:38:37;;;;;;;4.97;4.57;;;28.30;46.40;;;;;;4998874;28;20246;-73
2022/08/30 10:41:22;;;;;;;5.22;4.72;;;28.30;46.40;;;;;;4998870;28;20232;-73
2022/08/30 10:43:54;;;;;;;5.03;4.55;;;28.30;46.40;;;;;;4998758;28;20629;-73
2022/08/30 10:46:25;;;;;;;5.20;4.70;;;28.30;46.50;;;;;;4999747;28;20198;-73
2022/08/30 10:48:53;;;;;;;4.97;4.57;;;28.20;46.50;;;;;;4998853;28;20202;-73
2022/08/30 10:51:24;;;;;;;5.68;4.60;;;28.20;46.60;;;;;;5016008;28;20278;-73
2022/08/30 10:53:54;;;;;;;5.03;4.53;;;28.20;46.80;;;;;;4998337;28;20196;-73
2022/08/30 10:56:23;;;;;;;4.78;4.38;;;28.10;46.90;;;;;;4998746;28;20196;-73
2022/08/30 10:58:51;;;;;;;6.30;4.78;;;28.10;46.90;;;;;;4998582;28;20196;-73
2022/08/30 11:01:27;;;;;;;6.10;4.78;;;28.10;47.10;;;;;;4998565;28;20247;-73
2022/08/30 11:04:17;;;;;;;5.43;4.72;;;28.00;47.10;;;;;;4999091;28;20590;-73
2022/08/30 11:06:47;;;;;;;5.32;4.85;;;28.00;47.00;;;;;;5016074;28;20180;-73
2022/08/30 11:09:30;;;;;;;4.95;4.50;;;28.00;47.20;;;;;;5016001;28;20291;-73
2022/08/30 11:12:09;;;;;;;5.00;4.50;;;28.00;47.30;;;;;;4998155;28;20303;-73
2022/08/30 11:14:39;;;;;;;5.20;4.70;;;28.00;47.40;;;;;;4998128;28;20184;-73
2022/08/30 11:17:06;;;;;;;4.72;4.30;;;27.90;47.30;;;;;;4998292;28;20200;-73
2022/08/30 11:19:37;;;;;;;4.70;4.30;;;27.90;47.30;;;;;;4998292;28;20223;-73
2022/08/30 11:22:12;;;;;;;5.07;4.55;;;27.90;47.30;;;;;;4999119;28;20220;-73
2022/08/30 11:25:01;;;;;;;4.70;4.30;;;27.90;47.40;;;;;;4998030;28;20200;-73
2022/08/30 11:27:43;;;;;;;4.70;4.30;;;27.90;47.50;;;;;;4997894;28;20207;-73
2022/08/30 11:30:56;;;;;;;4.72;4.32;;;27.80;47.40;;;;;;4997818;28;20196;-73
2022/08/30 11:33:47;;;;;;;4.85;4.45;;;27.80;47.50;;;;;;4963790;28;20199;-73
2022/08/30 11:36:47;;;;;;;5.88;4.18;;;27.90;47.50;;;;;;4983794;28;20278;-73
2022/08/30 11:39:41;;;;;;;4.47;4.07;;;27.90;47.50;;;;;;4997916;28;20215;-73
2022/08/30 11:42:13;;;;;;;5.35;4.85;;;27.90;47.40;;;;;;5015290;28;20204;-73
2022/08/30 11:44:40;;;;;;;5.18;4.68;;;27.90;47.40;;;;;;4997606;28;20622;-73
2022/08/30 11:47:38;;;;;;;4.25;3.88;;;27.90;47.50;;;;;;5015214;28;20204;-73
2022/08/30 11:50:07;;;;;;;4.40;4.00;;;27.90;47.50;;;;;;4997823;28;20216;-73
2022/08/30 11:52:41;;;;;;;5.05;4.55;;;27.90;47.50;;;;;;4997993;28;20294;-73
2022/08/30 11:55:40;;;;;;;4.55;4.10;;;27.90;47.60;;;;;;5015301;28;20547;-73
2022/08/30 11:58:14;;;;;;;4.53;4.13;;;27.80;47.50;;;;;;5014881;28;20185;-73
2022/08/30 12:00:43;;;;;;;4.70;4.30;;;27.80;47.50;;;;;;4997314;28;20223;-73
2022/08/30 12:03:27;;;;;;;4.80;4.40;;;27.80;47.50;;;;;;4997176;28;20226;-73
2022/08/30 12:05:57;;;;;;;4.53;4.20;;;27.80;47.60;;;;;;4997454;28;20294;-73
2022/08/30 12:08:47;;;;;;;4.70;4.30;;;27.80;47.70;;;;;;4997236;28;20204;-73
2022/08/30 12:12:03;;;;;;;4.68;4.30;;;27.80;47.60;;;;;;4996779;28;20223;-73
2022/08/30 12:14:50;;;;;;;4.38;3.97;;;27.80;47.70;;;;;;5015962;28;20228;-73
2022/08/30 12:20:20;;;;;;;4.72;4.30;;;27.80;47.60;;;;;;5014403;28;20262;-73
2022/08/30 12:22:47;;;;;;;4.20;3.90;;;27.70;47.60;;;;;;4997442;28;20287;-73
2022/08/30 12:25:27;;;;;;;4.60;4.20;;;27.80;47.70;;;;;;4996915;28;20196;-73
2022/08/30 12:28:09;;;;;;;4.63;4.22;;;27.70;47.60;;;;;;4997648;28;20185;-73
2022/08/30 12:30:38;;;;;;;4.50;4.10;;;27.80;48.20;;;;;;5002795;28;20285;-73
2022/08/30 12:33:06;;;;;;;4.10;3.80;;;27.80;47.50;;;;;;5017789;28;20211;-73
2022/08/30 12:35:33;;;;;;;4.40;4.00;;;27.70;47.80;;;;;;5016254;28;20843;-73
2022/08/30 12:38:02;;;;;;;4.45;4.07;;;27.70;47.90;;;;;;5016881;28;20201;-73
2022/08/30 12:40:30;;;;;;;4.85;4.38;;;27.70;47.80;;;;;;5016905;28;20227;-73
2022/08/30 12:42:59;;;;;;;4.50;4.10;;;27.70;47.80;;;;;;5018972;28;20195;-73
2022/08/30 12:45:27;;;;;;;4.80;4.30;;;27.70;47.40;;;;;;5016682;28;20203;-73
2022/08/30 12:47:57;;;;;;;5.20;4.50;;;27.70;47.30;;;;;;5016236;28;20274;-73
2022/08/30 12:50:25;;;;;;;4.88;4.50;;;27.70;47.50;;;;;;5016262;28;20199;-73
2022/08/30 12:52:56;;;;;;;5.00;4.50;;;27.70;46.90;;;;;;5016328;28;20202;-73
2022/08/30 12:55:24;;;;;;;5.97;4.20;;;27.70;46.90;;;;;;5016631;28;20226;-73
2022/08/30 12:57:57;;;;;;;5.53;4.65;;;27.70;47.30;;;;;;5016142;28;20249;-73
2022/08/30 13:00:24;;;;;;;4.22;3.92;;;27.70;46.90;;;;;;5015893;28;20222;-73
2022/08/30 13:02:52;;;;;;;4.50;4.10;;;27.70;46.60;;;;;;5016564;28;20199;-73
2022/08/30 13:05:33;;;;;;;5.20;4.70;;;27.70;46.90;;;;;;5016046;28;20199;-73
2022/08/30 13:08:16;;;;;;;4.72;4.32;;;27.60;46.70;;;;;;5034332;28;20649;-73